sensor_id;sensor_type;location;lat;lon;timestamp;P1;durP1;ratioP1;P2;durP2;ratioP2
76589;SDS011;65471;55.908;37.880;2023-07-29T00:01:40;13.55;;;6.05;;
76589;SDS011;65471;55.908;37.880;2023-07-29T00:04:08;7.40;;;5.72;;
76589;SDS011;65471;55.908;37.880;2023-07-29T00:06:35;24.50;;;5.60;;
76589;SDS011;65471;55.908;37.880;2023-07-29T00:09:03;14.43;;;5.30;;
76589;SDS011;65471;55.908;37.880;2023-07-29T00:11:30;14.50;;;5.65;;
76589;SDS011;65471;55.908;37.880;2023-07-29T00:14:00;9.52;;;5.85;;
76589;SDS011;65471;55.908;37.880;2023-07-29T00:16:27;6.82;;;5.45;;
76589;SDS011;65471;55.908;37.880;2023-07-29T00:18:55;7.35;;;5.05;;
76589;SDS011;65471;55.908;37.880;2023-07-29T00:21:21;5.80;;;5.20;;
76589;SDS011;65471;55.908;37.880;2023-07-29T00:23:48;8.73;;;5.25;;
76589;SDS011;65471;55.908;37.880;2023-07-29T00:26:15;5.70;;;5.00;;
76589;SDS011;65471;55.908;37.880;2023-07-29T00:28:42;8.75;;;5.43;;
76589;SDS011;65471;55.908;37.880;2023-07-29T00:31:09;17.15;;;6.05;;
76589;SDS011;65471;55.908;37.880;2023-07-29T00:33:37;16.73;;;5.47;;
76589;SDS011;65471;55.908;37.880;2023-07-29T00:36:04;21.75;;;6.30;;
76589;SDS011;65471;55.908;37.880;2023-07-29T00:38:31;22.60;;;5.55;;
76589;SDS011;65471;55.908;37.880;2023-07-29T00:40:58;6.30;;;5.45;;
76589;SDS011;65471;55.908;37.880;2023-07-29T00:43:28;11.77;;;5.53;;
76589;SDS011;65471;55.908;37.880;2023-07-29T00:45:55;12.30;;;5.70;;
76589;SDS011;65471;55.908;37.880;2023-07-29T00:48:24;19.63;;;5.55;;
76589;SDS011;65471;55.908;37.880;2023-07-29T00:50:54;9.73;;;5.90;;
76589;SDS011;65471;55.908;37.880;2023-07-29T00:53:21;11.27;;;5.90;;
76589;SDS011;65471;55.908;37.880;2023-07-29T00:55:48;7.38;;;5.25;;
76589;SDS011;65471;55.908;37.880;2023-07-29T00:58:15;8.35;;;5.40;;
76589;SDS011;65471;55.908;37.880;2023-07-29T01:00:42;13.75;;;5.78;;
76589;SDS011;65471;55.908;37.880;2023-07-29T01:03:09;5.68;;;5.20;;
76589;SDS011;65471;55.908;37.880;2023-07-29T01:05:39;12.77;;;5.50;;
76589;SDS011;65471;55.908;37.880;2023-07-29T01:14:04;10.50;;;5.93;;
76589;SDS011;65471;55.908;37.880;2023-07-29T01:16:46;6.72;;;5.30;;
76589;SDS011;65471;55.908;37.880;2023-07-29T01:22:21;18.35;;;6.10;;
76589;SDS011;65471;55.908;37.880;2023-07-29T01:24:48;11.25;;;5.70;;
76589;SDS011;65471;55.908;37.880;2023-07-29T01:27:15;11.43;;;6.82;;
76589;SDS011;65471;55.908;37.880;2023-07-29T01:29:42;21.17;;;6.20;;
76589;SDS011;65471;55.908;37.880;2023-07-29T01:32:17;17.65;;;6.30;;
76589;SDS011;65471;55.908;37.880;2023-07-29T01:37:57;13.48;;;6.47;;
76589;SDS011;65471;55.908;37.880;2023-07-29T01:40:29;12.40;;;5.85;;
76589;SDS011;65471;55.908;37.880;2023-07-29T01:42:57;15.15;;;6.32;;
76589;SDS011;65471;55.908;37.880;2023-07-29T01:45:25;15.50;;;6.18;;
76589;SDS011;65471;55.908;37.880;2023-07-29T01:47:52;7.78;;;6.00;;
76589;SDS011;65471;55.908;37.880;2023-07-29T01:50:19;11.30;;;6.65;;
76589;SDS011;65471;55.908;37.880;2023-07-29T01:52:46;10.95;;;6.43;;
76589;SDS011;65471;55.908;37.880;2023-07-29T01:55:13;10.73;;;6.03;;
76589;SDS011;65471;55.908;37.880;2023-07-29T01:57:40;7.65;;;6.80;;
76589;SDS011;65471;55.908;37.880;2023-07-29T02:00:07;14.40;;;6.82;;
76589;SDS011;65471;55.908;37.880;2023-07-29T02:02:35;20.58;;;6.93;;
76589;SDS011;65471;55.908;37.880;2023-07-29T02:05:02;18.42;;;6.65;;
76589;SDS011;65471;55.908;37.880;2023-07-29T02:07:29;15.15;;;6.90;;
76589;SDS011;65471;55.908;37.880;2023-07-29T02:09:56;12.45;;;6.55;;
76589;SDS011;65471;55.908;37.880;2023-07-29T02:12:23;13.38;;;7.15;;
76589;SDS011;65471;55.908;37.880;2023-07-29T02:14:50;15.25;;;6.55;;
76589;SDS011;65471;55.908;37.880;2023-07-29T02:17:17;7.75;;;6.72;;
76589;SDS011;65471;55.908;37.880;2023-07-29T02:19:44;10.88;;;6.57;;
76589;SDS011;65471;55.908;37.880;2023-07-29T02:22:13;19.42;;;6.35;;
76589;SDS011;65471;55.908;37.880;2023-07-29T02:24:41;18.42;;;6.78;;
76589;SDS011;65471;55.908;37.880;2023-07-29T02:27:08;11.90;;;7.10;;
76589;SDS011;65471;55.908;37.880;2023-07-29T02:29:35;10.85;;;6.55;;
76589;SDS011;65471;55.908;37.880;2023-07-29T02:32:02;8.30;;;6.47;;
76589;SDS011;65471;55.908;37.880;2023-07-29T02:34:30;17.88;;;6.80;;
76589;SDS011;65471;55.908;37.880;2023-07-29T02:36:56;22.95;;;7.50;;
76589;SDS011;65471;55.908;37.880;2023-07-29T02:39:23;7.45;;;6.82;;
76589;SDS011;65471;55.908;37.880;2023-07-29T02:41:50;12.05;;;6.50;;
76589;SDS011;65471;55.908;37.880;2023-07-29T02:44:17;7.78;;;6.95;;
76589;SDS011;65471;55.908;37.880;2023-07-29T02:46:46;7.30;;;6.53;;
76589;SDS011;65471;55.908;37.880;2023-07-29T02:49:12;8.55;;;6.75;;
76589;SDS011;65471;55.908;37.880;2023-07-29T02:51:40;15.07;;;7.20;;
76589;SDS011;65471;55.908;37.880;2023-07-29T02:54:07;14.20;;;6.68;;
76589;SDS011;65471;55.908;37.880;2023-07-29T02:56:34;13.35;;;6.75;;
76589;SDS011;65471;55.908;37.880;2023-07-29T02:59:01;12.68;;;6.95;;
76589;SDS011;65471;55.908;37.880;2023-07-29T03:01:28;18.85;;;7.20;;
76589;SDS011;65471;55.908;37.880;2023-07-29T03:03:55;11.10;;;7.07;;
76589;SDS011;65471;55.908;37.880;2023-07-29T03:06:22;11.98;;;7.30;;
76589;SDS011;65471;55.908;37.880;2023-07-29T03:08:50;14.25;;;6.40;;
76589;SDS011;65471;55.908;37.880;2023-07-29T03:11:17;20.63;;;6.85;;
76589;SDS011;65471;55.908;37.880;2023-07-29T03:13:44;19.45;;;7.22;;
76589;SDS011;65471;55.908;37.880;2023-07-29T03:16:12;8.98;;;8.05;;
76589;SDS011;65471;55.908;37.880;2023-07-29T03:18:40;7.82;;;6.50;;
76589;SDS011;65471;55.908;37.880;2023-07-29T03:21:08;8.03;;;7.17;;
76589;SDS011;65471;55.908;37.880;2023-07-29T03:23:36;17.30;;;6.90;;
76589;SDS011;65471;55.908;37.880;2023-07-29T03:26:03;10.70;;;6.57;;
76589;SDS011;65471;55.908;37.880;2023-07-29T03:28:37;13.43;;;7.30;;
76589;SDS011;65471;55.908;37.880;2023-07-29T03:31:06;8.57;;;6.65;;
76589;SDS011;65471;55.908;37.880;2023-07-29T03:33:34;14.27;;;6.80;;
76589;SDS011;65471;55.908;37.880;2023-07-29T03:36:01;14.15;;;6.95;;
76589;SDS011;65471;55.908;37.880;2023-07-29T03:38:28;9.93;;;6.72;;
76589;SDS011;65471;55.908;37.880;2023-07-29T03:40:55;9.52;;;7.55;;
76589;SDS011;65471;55.908;37.880;2023-07-29T03:43:23;25.52;;;7.90;;
76589;SDS011;65471;55.908;37.880;2023-07-29T03:45:50;11.50;;;7.45;;
76589;SDS011;65471;55.908;37.880;2023-07-29T03:48:17;19.75;;;8.18;;
76589;SDS011;65471;55.908;37.880;2023-07-29T03:50:44;15.45;;;7.43;;
76589;SDS011;65471;55.908;37.880;2023-07-29T03:53:11;11.35;;;7.78;;
76589;SDS011;65471;55.908;37.880;2023-07-29T03:55:37;30.63;;;7.85;;
76589;SDS011;65471;55.908;37.880;2023-07-29T03:58:04;10.10;;;8.40;;
76589;SDS011;65471;55.908;37.880;2023-07-29T04:00:31;17.75;;;8.13;;
76589;SDS011;65471;55.908;37.880;2023-07-29T04:02:58;14.95;;;8.57;;
76589;SDS011;65471;55.908;37.880;2023-07-29T04:05:25;24.73;;;7.97;;
76589;SDS011;65471;55.908;37.880;2023-07-29T04:07:53;14.25;;;7.82;;
76589;SDS011;65471;55.908;37.880;2023-07-29T04:10:20;23.20;;;7.82;;
76589;SDS011;65471;55.908;37.880;2023-07-29T04:12:47;22.02;;;8.85;;
76589;SDS011;65471;55.908;37.880;2023-07-29T04:15:14;18.90;;;7.13;;
76589;SDS011;65471;55.908;37.880;2023-07-29T04:17:41;21.75;;;8.07;;
76589;SDS011;65471;55.908;37.880;2023-07-29T04:20:08;19.95;;;8.73;;
76589;SDS011;65471;55.908;37.880;2023-07-29T04:22:36;15.70;;;8.50;;
76589;SDS011;65471;55.908;37.880;2023-07-29T04:25:04;17.88;;;8.65;;
76589;SDS011;65471;55.908;37.880;2023-07-29T04:27:31;17.75;;;8.15;;
76589;SDS011;65471;55.908;37.880;2023-07-29T04:29:58;22.27;;;8.80;;
76589;SDS011;65471;55.908;37.880;2023-07-29T04:32:25;19.92;;;8.18;;
76589;SDS011;65471;55.908;37.880;2023-07-29T04:34:52;8.50;;;7.70;;
76589;SDS011;65471;55.908;37.880;2023-07-29T04:37:19;14.88;;;9.02;;
76589;SDS011;65471;55.908;37.880;2023-07-29T04:39:46;21.42;;;8.35;;
76589;SDS011;65471;55.908;37.880;2023-07-29T04:42:13;14.23;;;8.00;;
76589;SDS011;65471;55.908;37.880;2023-07-29T04:44:40;18.90;;;8.77;;
76589;SDS011;65471;55.908;37.880;2023-07-29T04:47:08;8.43;;;7.78;;
76589;SDS011;65471;55.908;37.880;2023-07-29T04:49:36;15.63;;;7.60;;
76589;SDS011;65471;55.908;37.880;2023-07-29T04:52:03;22.20;;;8.05;;
76589;SDS011;65471;55.908;37.880;2023-07-29T04:54:30;14.65;;;7.75;;
76589;SDS011;65471;55.908;37.880;2023-07-29T04:56:57;7.75;;;6.95;;
76589;SDS011;65471;55.908;37.880;2023-07-29T04:59:24;12.77;;;7.95;;
76589;SDS011;65471;55.908;37.880;2023-07-29T05:01:51;9.10;;;8.18;;
76589;SDS011;65471;55.908;37.880;2023-07-29T05:04:20;12.65;;;7.70;;
76589;SDS011;65471;55.908;37.880;2023-07-29T05:06:48;21.42;;;9.13;;
76589;SDS011;65471;55.908;37.880;2023-07-29T05:09:15;16.02;;;7.70;;
76589;SDS011;65471;55.908;37.880;2023-07-29T05:11:44;10.98;;;7.90;;
76589;SDS011;65471;55.908;37.880;2023-07-29T05:14:15;9.05;;;7.45;;
76589;SDS011;65471;55.908;37.880;2023-07-29T05:16:43;13.55;;;7.57;;
76589;SDS011;65471;55.908;37.880;2023-07-29T05:19:11;8.65;;;7.47;;
76589;SDS011;65471;55.908;37.880;2023-07-29T05:21:38;11.45;;;8.05;;
76589;SDS011;65471;55.908;37.880;2023-07-29T05:24:06;17.65;;;7.60;;
76589;SDS011;65471;55.908;37.880;2023-07-29T05:26:33;14.50;;;8.27;;
76589;SDS011;65471;55.908;37.880;2023-07-29T05:29:00;13.23;;;7.93;;
76589;SDS011;65471;55.908;37.880;2023-07-29T05:31:27;14.30;;;7.65;;
76589;SDS011;65471;55.908;37.880;2023-07-29T05:33:54;23.13;;;8.30;;
76589;SDS011;65471;55.908;37.880;2023-07-29T05:36:21;13.63;;;7.78;;
76589;SDS011;65471;55.908;37.880;2023-07-29T05:38:48;11.75;;;7.43;;
76589;SDS011;65471;55.908;37.880;2023-07-29T05:41:15;8.23;;;7.53;;
76589;SDS011;65471;55.908;37.880;2023-07-29T05:43:42;21.38;;;8.88;;
76589;SDS011;65471;55.908;37.880;2023-07-29T05:46:09;13.75;;;6.97;;
76589;SDS011;65471;55.908;37.880;2023-07-29T05:48:37;8.77;;;8.00;;
76589;SDS011;65471;55.908;37.880;2023-07-29T05:51:04;16.38;;;7.85;;
76589;SDS011;65471;55.908;37.880;2023-07-29T05:53:32;16.73;;;7.95;;
76589;SDS011;65471;55.908;37.880;2023-07-29T05:55:59;10.68;;;7.40;;
76589;SDS011;65471;55.908;37.880;2023-07-29T05:58:25;8.05;;;7.03;;
76589;SDS011;65471;55.908;37.880;2023-07-29T06:00:52;12.05;;;7.60;;
76589;SDS011;65471;55.908;37.880;2023-07-29T06:03:19;155.45;;;10.93;;
76589;SDS011;65471;55.908;37.880;2023-07-29T06:05:48;14.93;;;8.25;;
76589;SDS011;65471;55.908;37.880;2023-07-29T06:08:19;17.02;;;8.30;;
76589;SDS011;65471;55.908;37.880;2023-07-29T06:10:46;7.05;;;6.30;;
76589;SDS011;65471;55.908;37.880;2023-07-29T06:13:12;11.60;;;7.10;;
76589;SDS011;65471;55.908;37.880;2023-07-29T06:15:39;13.45;;;7.30;;
76589;SDS011;65471;55.908;37.880;2023-07-29T06:18:06;18.90;;;7.93;;
76589;SDS011;65471;55.908;37.880;2023-07-29T06:20:33;270.42;;;16.75;;
76589;SDS011;65471;55.908;37.880;2023-07-29T06:23:00;17.17;;;8.18;;
76589;SDS011;65471;55.908;37.880;2023-07-29T06:25:28;11.65;;;7.30;;
76589;SDS011;65471;55.908;37.880;2023-07-29T06:27:55;8.25;;;7.40;;
76589;SDS011;65471;55.908;37.880;2023-07-29T06:30:22;11.88;;;7.25;;
76589;SDS011;65471;55.908;37.880;2023-07-29T06:32:49;17.15;;;6.50;;
76589;SDS011;65471;55.908;37.880;2023-07-29T06:35:16;20.48;;;6.68;;
76589;SDS011;65471;55.908;37.880;2023-07-29T06:37:43;11.90;;;7.22;;
76589;SDS011;65471;55.908;37.880;2023-07-29T06:40:10;7.75;;;7.00;;
76589;SDS011;65471;55.908;37.880;2023-07-29T06:42:37;13.40;;;7.30;;
76589;SDS011;65471;55.908;37.880;2023-07-29T06:45:04;15.52;;;6.65;;
76589;SDS011;65471;55.908;37.880;2023-07-29T06:47:32;15.77;;;7.57;;
76589;SDS011;65471;55.908;37.880;2023-07-29T06:49:59;12.68;;;6.20;;
76589;SDS011;65471;55.908;37.880;2023-07-29T06:52:26;23.95;;;7.47;;
76589;SDS011;65471;55.908;37.880;2023-07-29T06:54:53;7.32;;;6.50;;
76589;SDS011;65471;55.908;37.880;2023-07-29T06:57:20;13.35;;;6.40;;
76589;SDS011;65471;55.908;37.880;2023-07-29T06:59:47;8.18;;;7.32;;
76589;SDS011;65471;55.908;37.880;2023-07-29T07:02:14;8.55;;;7.70;;
76589;SDS011;65471;55.908;37.880;2023-07-29T07:04:41;13.38;;;7.55;;
76589;SDS011;65471;55.908;37.880;2023-07-29T07:07:08;16.58;;;7.68;;
76589;SDS011;65471;55.908;37.880;2023-07-29T07:09:35;20.80;;;8.57;;
76589;SDS011;65471;55.908;37.880;2023-07-29T07:12:02;8.15;;;7.13;;
76589;SDS011;65471;55.908;37.880;2023-07-29T07:14:29;11.05;;;7.00;;
76589;SDS011;65471;55.908;37.880;2023-07-29T07:16:56;10.63;;;7.25;;
76589;SDS011;65471;55.908;37.880;2023-07-29T07:19:23;13.70;;;7.28;;
76589;SDS011;65471;55.908;37.880;2023-07-29T07:21:50;7.60;;;7.10;;
76589;SDS011;65471;55.908;37.880;2023-07-29T07:24:17;7.82;;;7.03;;
76589;SDS011;65471;55.908;37.880;2023-07-29T07:26:44;7.10;;;6.50;;
76589;SDS011;65471;55.908;37.880;2023-07-29T07:29:10;11.18;;;7.35;;
76589;SDS011;65471;55.908;37.880;2023-07-29T07:31:37;9.02;;;6.90;;
76589;SDS011;65471;55.908;37.880;2023-07-29T07:34:04;10.20;;;6.95;;
76589;SDS011;65471;55.908;37.880;2023-07-29T07:36:31;8.15;;;6.80;;
76589;SDS011;65471;55.908;37.880;2023-07-29T07:38:58;8.88;;;6.70;;
76589;SDS011;65471;55.908;37.880;2023-07-29T07:41:25;8.23;;;6.85;;
76589;SDS011;65471;55.908;37.880;2023-07-29T07:43:52;7.53;;;6.97;;
76589;SDS011;65471;55.908;37.880;2023-07-29T07:46:19;10.25;;;6.60;;
76589;SDS011;65471;55.908;37.880;2023-07-29T07:48:46;9.35;;;6.72;;
76589;SDS011;65471;55.908;37.880;2023-07-29T07:51:13;8.10;;;7.40;;
76589;SDS011;65471;55.908;37.880;2023-07-29T07:53:40;8.20;;;6.18;;
76589;SDS011;65471;55.908;37.880;2023-07-29T07:56:07;8.02;;;6.18;;
76589;SDS011;65471;55.908;37.880;2023-07-29T07:58:34;7.28;;;6.40;;
76589;SDS011;65471;55.908;37.880;2023-07-29T08:01:01;10.20;;;6.18;;
76589;SDS011;65471;55.908;37.880;2023-07-29T08:03:30;13.18;;;6.80;;
76589;SDS011;65471;55.908;37.880;2023-07-29T08:05:57;7.82;;;6.75;;
76589;SDS011;65471;55.908;37.880;2023-07-29T08:08:25;9.55;;;7.03;;
76589;SDS011;65471;55.908;37.880;2023-07-29T08:10:53;7.53;;;6.90;;
76589;SDS011;65471;55.908;37.880;2023-07-29T08:13:21;12.98;;;7.05;;
76589;SDS011;65471;55.908;37.880;2023-07-29T08:15:52;12.77;;;7.82;;
76589;SDS011;65471;55.908;37.880;2023-07-29T08:18:19;8.50;;;6.90;;
76589;SDS011;65471;55.908;37.880;2023-07-29T08:20:54;10.02;;;6.95;;
76589;SDS011;65471;55.908;37.880;2023-07-29T08:23:27;18.85;;;7.47;;
76589;SDS011;65471;55.908;37.880;2023-07-29T08:25:54;11.07;;;7.05;;
76589;SDS011;65471;55.908;37.880;2023-07-29T08:28:28;8.98;;;8.07;;
76589;SDS011;65471;55.908;37.880;2023-07-29T08:31:00;11.65;;;8.02;;
76589;SDS011;65471;55.908;37.880;2023-07-29T08:33:27;11.93;;;8.80;;
76589;SDS011;65471;55.908;37.880;2023-07-29T08:35:55;12.50;;;8.17;;
76589;SDS011;65471;55.908;37.880;2023-07-29T08:38:22;14.05;;;9.07;;
76589;SDS011;65471;55.908;37.880;2023-07-29T08:41:13;10.13;;;8.25;;
76589;SDS011;65471;55.908;37.880;2023-07-29T08:43:50;7.93;;;7.30;;
76589;SDS011;65471;55.908;37.880;2023-07-29T08:46:19;15.48;;;9.25;;
76589;SDS011;65471;55.908;37.880;2023-07-29T08:48:46;11.43;;;8.80;;
76589;SDS011;65471;55.908;37.880;2023-07-29T08:51:14;15.30;;;8.68;;
76589;SDS011;65471;55.908;37.880;2023-07-29T08:53:42;13.35;;;8.88;;
76589;SDS011;65471;55.908;37.880;2023-07-29T08:56:09;9.80;;;8.52;;
76589;SDS011;65471;55.908;37.880;2023-07-29T08:58:36;10.90;;;9.82;;
76589;SDS011;65471;55.908;37.880;2023-07-29T09:01:05;15.63;;;9.18;;
76589;SDS011;65471;55.908;37.880;2023-07-29T09:03:32;10.87;;;9.70;;
76589;SDS011;65471;55.908;37.880;2023-07-29T09:06:00;12.50;;;9.57;;
76589;SDS011;65471;55.908;37.880;2023-07-29T09:08:29;13.35;;;10.30;;
76589;SDS011;65471;55.908;37.880;2023-07-29T09:10:56;9.93;;;9.02;;
76589;SDS011;65471;55.908;37.880;2023-07-29T09:13:23;9.60;;;8.63;;
76589;SDS011;65471;55.908;37.880;2023-07-29T09:15:55;12.75;;;9.32;;
76589;SDS011;65471;55.908;37.880;2023-07-29T09:18:23;16.83;;;9.70;;
76589;SDS011;65471;55.908;37.880;2023-07-29T09:20:53;20.42;;;9.23;;
76589;SDS011;65471;55.908;37.880;2023-07-29T09:23:20;16.15;;;9.52;;
76589;SDS011;65471;55.908;37.880;2023-07-29T09:25:47;18.45;;;10.05;;
76589;SDS011;65471;55.908;37.880;2023-07-29T09:28:14;11.95;;;9.23;;
76589;SDS011;65471;55.908;37.880;2023-07-29T09:30:44;17.88;;;9.95;;
76589;SDS011;65471;55.908;37.880;2023-07-29T09:33:13;14.38;;;9.45;;
76589;SDS011;65471;55.908;37.880;2023-07-29T09:35:40;14.60;;;10.02;;
76589;SDS011;65471;55.908;37.880;2023-07-29T09:38:08;25.00;;;10.45;;
76589;SDS011;65471;55.908;37.880;2023-07-29T09:40:42;22.25;;;10.75;;
76589;SDS011;65471;55.908;37.880;2023-07-29T09:43:11;20.25;;;10.65;;
76589;SDS011;65471;55.908;37.880;2023-07-29T09:45:38;16.35;;;9.90;;
76589;SDS011;65471;55.908;37.880;2023-07-29T09:48:05;17.42;;;10.43;;
76589;SDS011;65471;55.908;37.880;2023-07-29T09:50:36;20.63;;;11.23;;
76589;SDS011;65471;55.908;37.880;2023-07-29T09:53:03;15.45;;;10.57;;
76589;SDS011;65471;55.908;37.880;2023-07-29T09:55:33;16.48;;;10.65;;
76589;SDS011;65471;55.908;37.880;2023-07-29T09:58:01;14.80;;;11.02;;
76589;SDS011;65471;55.908;37.880;2023-07-29T10:00:31;20.77;;;11.13;;
76589;SDS011;65471;55.908;37.880;2023-07-29T10:02:58;21.93;;;11.03;;
76589;SDS011;65471;55.908;37.880;2023-07-29T10:05:27;28.50;;;10.98;;
76589;SDS011;65471;55.908;37.880;2023-07-29T10:07:55;18.90;;;11.18;;
76589;SDS011;65471;55.908;37.880;2023-07-29T10:10:22;20.98;;;10.63;;
76589;SDS011;65471;55.908;37.880;2023-07-29T10:12:50;17.85;;;10.10;;
76589;SDS011;65471;55.908;37.880;2023-07-29T10:15:17;14.35;;;9.85;;
76589;SDS011;65471;55.908;37.880;2023-07-29T10:17:44;18.15;;;10.65;;
76589;SDS011;65471;55.908;37.880;2023-07-29T10:20:15;26.63;;;10.40;;
76589;SDS011;65471;55.908;37.880;2023-07-29T10:22:43;13.88;;;10.25;;
76589;SDS011;65471;55.908;37.880;2023-07-29T10:25:17;17.13;;;10.40;;
76589;SDS011;65471;55.908;37.880;2023-07-29T10:27:52;21.55;;;10.77;;
76589;SDS011;65471;55.908;37.880;2023-07-29T10:30:22;12.93;;;9.80;;
76589;SDS011;65471;55.908;37.880;2023-07-29T10:32:51;15.90;;;10.18;;
76589;SDS011;65471;55.908;37.880;2023-07-29T10:35:19;26.98;;;12.25;;
76589;SDS011;65471;55.908;37.880;2023-07-29T10:37:46;22.20;;;10.80;;
76589;SDS011;65471;55.908;37.880;2023-07-29T10:40:17;18.80;;;12.23;;
76589;SDS011;65471;55.908;37.880;2023-07-29T10:45:38;24.08;;;12.40;;
76589;SDS011;65471;55.908;37.880;2023-07-29T10:53:01;20.25;;;12.05;;
76589;SDS011;65471;55.908;37.880;2023-07-29T11:03:23;23.10;;;12.63;;
76589;SDS011;65471;55.908;37.880;2023-07-29T11:05:55;17.50;;;12.95;;
76589;SDS011;65471;55.908;37.880;2023-07-29T11:08:31;39.25;;;14.38;;
76589;SDS011;65471;55.908;37.880;2023-07-29T11:11:07;18.88;;;11.82;;
76589;SDS011;65471;55.908;37.880;2023-07-29T11:13:35;37.50;;;13.13;;
76589;SDS011;65471;55.908;37.880;2023-07-29T11:16:06;25.88;;;13.27;;
76589;SDS011;65471;55.908;37.880;2023-07-29T11:18:34;26.05;;;12.63;;
76589;SDS011;65471;55.908;37.880;2023-07-29T11:21:03;15.98;;;10.85;;
76589;SDS011;65471;55.908;37.880;2023-07-29T11:23:31;29.02;;;11.38;;
76589;SDS011;65471;55.908;37.880;2023-07-29T11:26:02;26.75;;;11.85;;
76589;SDS011;65471;55.908;37.880;2023-07-29T11:28:30;29.90;;;12.23;;
76589;SDS011;65471;55.908;37.880;2023-07-29T11:30:57;24.50;;;12.38;;
76589;SDS011;65471;55.908;37.880;2023-07-29T11:33:25;45.08;;;12.65;;
76589;SDS011;65471;55.908;37.880;2023-07-29T11:35:55;26.08;;;12.45;;
76589;SDS011;65471;55.908;37.880;2023-07-29T11:38:22;24.52;;;12.40;;
76589;SDS011;65471;55.908;37.880;2023-07-29T11:40:54;26.70;;;12.55;;
76589;SDS011;65471;55.908;37.880;2023-07-29T11:43:22;14.00;;;10.70;;
76589;SDS011;65471;55.908;37.880;2023-07-29T11:45:50;24.90;;;12.02;;
76589;SDS011;65471;55.908;37.880;2023-07-29T11:50:45;23.55;;;10.80;;
76589;SDS011;65471;55.908;37.880;2023-07-29T11:53:12;30.70;;;10.98;;
76589;SDS011;65471;55.908;37.880;2023-07-29T11:55:42;19.20;;;10.52;;
76589;SDS011;65471;55.908;37.880;2023-07-29T11:58:09;24.83;;;11.63;;
76589;SDS011;65471;55.908;37.880;2023-07-29T12:00:37;23.88;;;10.95;;
76589;SDS011;65471;55.908;37.880;2023-07-29T12:03:04;29.33;;;12.55;;
76589;SDS011;65471;55.908;37.880;2023-07-29T12:05:32;16.90;;;12.80;;
76589;SDS011;65471;55.908;37.880;2023-07-29T12:07:59;14.88;;;10.52;;
76589;SDS011;65471;55.908;37.880;2023-07-29T12:10:26;18.05;;;11.43;;
76589;SDS011;65471;55.908;37.880;2023-07-29T12:12:53;22.92;;;11.40;;
76589;SDS011;65471;55.908;37.880;2023-07-29T12:15:27;21.30;;;11.57;;
76589;SDS011;65471;55.908;37.880;2023-07-29T12:17:56;18.95;;;11.80;;
76589;SDS011;65471;55.908;37.880;2023-07-29T12:20:25;19.48;;;12.23;;
76589;SDS011;65471;55.908;37.880;2023-07-29T12:22:55;14.13;;;11.85;;
76589;SDS011;65471;55.908;37.880;2023-07-29T12:25:25;15.07;;;10.82;;
76589;SDS011;65471;55.908;37.880;2023-07-29T12:30:20;21.85;;;9.63;;
76589;SDS011;65471;55.908;37.880;2023-07-29T12:32:48;18.55;;;9.95;;
76589;SDS011;65471;55.908;37.880;2023-07-29T12:35:15;17.65;;;10.23;;
76589;SDS011;65471;55.908;37.880;2023-07-29T12:37:42;14.75;;;10.07;;
76589;SDS011;65471;55.908;37.880;2023-07-29T12:40:25;22.52;;;9.65;;
76589;SDS011;65471;55.908;37.880;2023-07-29T12:42:54;13.73;;;9.25;;
76589;SDS011;65471;55.908;37.880;2023-07-29T12:45:22;27.02;;;9.30;;
76589;SDS011;65471;55.908;37.880;2023-07-29T12:47:53;22.95;;;10.25;;
76589;SDS011;65471;55.908;37.880;2023-07-29T12:50:20;24.85;;;9.98;;
76589;SDS011;65471;55.908;37.880;2023-07-29T12:52:48;12.57;;;7.93;;
76589;SDS011;65471;55.908;37.880;2023-07-29T12:55:15;15.52;;;8.45;;
76589;SDS011;65471;55.908;37.880;2023-07-29T12:57:45;13.93;;;8.95;;
76589;SDS011;65471;55.908;37.880;2023-07-29T13:00:12;9.45;;;8.48;;
76589;SDS011;65471;55.908;37.880;2023-07-29T13:02:39;17.52;;;9.30;;
76589;SDS011;65471;55.908;37.880;2023-07-29T13:05:09;9.63;;;8.45;;
76589;SDS011;65471;55.908;37.880;2023-07-29T13:07:40;16.85;;;9.70;;
76589;SDS011;65471;55.908;37.880;2023-07-29T13:10:08;16.02;;;9.02;;
76589;SDS011;65471;55.908;37.880;2023-07-29T13:12:35;16.80;;;8.85;;
76589;SDS011;65471;55.908;37.880;2023-07-29T13:15:03;12.30;;;9.02;;
76589;SDS011;65471;55.908;37.880;2023-07-29T13:17:31;27.65;;;11.15;;
76589;SDS011;65471;55.908;37.880;2023-07-29T13:19:58;19.52;;;10.50;;
76589;SDS011;65471;55.908;37.880;2023-07-29T13:22:25;22.98;;;10.68;;
76589;SDS011;65471;55.908;37.880;2023-07-29T13:24:52;18.58;;;11.75;;
76589;SDS011;65471;55.908;37.880;2023-07-29T13:27:18;26.73;;;12.77;;
76589;SDS011;65471;55.908;37.880;2023-07-29T13:29:45;21.38;;;10.85;;
76589;SDS011;65471;55.908;37.880;2023-07-29T13:32:13;23.33;;;11.00;;
76589;SDS011;65471;55.908;37.880;2023-07-29T13:34:40;19.40;;;10.77;;
76589;SDS011;65471;55.908;37.880;2023-07-29T13:37:07;19.05;;;9.38;;
76589;SDS011;65471;55.908;37.880;2023-07-29T13:39:34;17.88;;;8.45;;
76589;SDS011;65471;55.908;37.880;2023-07-29T13:42:01;18.15;;;8.25;;
76589;SDS011;65471;55.908;37.880;2023-07-29T13:44:28;9.98;;;7.72;;
76589;SDS011;65471;55.908;37.880;2023-07-29T13:46:55;16.30;;;8.93;;
76589;SDS011;65471;55.908;37.880;2023-07-29T13:49:22;10.18;;;7.65;;
76589;SDS011;65471;55.908;37.880;2023-07-29T13:51:49;17.42;;;7.82;;
76589;SDS011;65471;55.908;37.880;2023-07-29T13:54:15;18.23;;;7.50;;
76589;SDS011;65471;55.908;37.880;2023-07-29T13:56:42;10.45;;;7.90;;
76589;SDS011;65471;55.908;37.880;2023-07-29T13:59:09;13.90;;;7.88;;
76589;SDS011;65471;55.908;37.880;2023-07-29T14:01:36;13.73;;;8.18;;
76589;SDS011;65471;55.908;37.880;2023-07-29T14:04:03;9.75;;;6.85;;
76589;SDS011;65471;55.908;37.880;2023-07-29T14:06:30;17.52;;;8.15;;
76589;SDS011;65471;55.908;37.880;2023-07-29T14:09:12;11.98;;;8.05;;
76589;SDS011;65471;55.908;37.880;2023-07-29T14:11:38;15.60;;;8.13;;
76589;SDS011;65471;55.908;37.880;2023-07-29T14:14:06;20.02;;;8.25;;
76589;SDS011;65471;55.908;37.880;2023-07-29T14:16:33;22.35;;;8.13;;
76589;SDS011;65471;55.908;37.880;2023-07-29T14:19:02;19.80;;;9.57;;
76589;SDS011;65471;55.908;37.880;2023-07-29T14:21:29;13.57;;;9.57;;
76589;SDS011;65471;55.908;37.880;2023-07-29T14:23:55;25.25;;;8.95;;
76589;SDS011;65471;55.908;37.880;2023-07-29T14:26:22;21.00;;;10.52;;
76589;SDS011;65471;55.908;37.880;2023-07-29T14:28:49;22.83;;;10.73;;
76589;SDS011;65471;55.908;37.880;2023-07-29T14:31:16;23.85;;;14.50;;
76589;SDS011;65471;55.908;37.880;2023-07-29T14:33:44;35.85;;;18.05;;
76589;SDS011;65471;55.908;37.880;2023-07-29T14:36:11;44.17;;;22.25;;
76589;SDS011;65471;55.908;37.880;2023-07-29T14:38:38;50.78;;;23.33;;
76589;SDS011;65471;55.908;37.880;2023-07-29T14:41:05;50.47;;;22.00;;
76589;SDS011;65471;55.908;37.880;2023-07-29T14:43:32;36.50;;;18.25;;
76589;SDS011;65471;55.908;37.880;2023-07-29T14:45:58;22.40;;;12.90;;
76589;SDS011;65471;55.908;37.880;2023-07-29T14:48:26;15.50;;;11.15;;
76589;SDS011;65471;55.908;37.880;2023-07-29T14:50:53;17.92;;;10.27;;
76589;SDS011;65471;55.908;37.880;2023-07-29T14:53:20;24.92;;;10.43;;
76589;SDS011;65471;55.908;37.880;2023-07-29T14:55:47;27.80;;;11.82;;
76589;SDS011;65471;55.908;37.880;2023-07-29T14:58:14;23.77;;;10.73;;